Time;durP1;ratioP1;P1;durP2;ratioP2;P2;SDS_P1;SDS_P2;PMS_P1;PMS_P2;Temp;Humidity;BMP_temperature;BMP_pressure;BME280_temperature;BME280_humidity;BME280_pressure;Samples;Min_cycle;Max_cycle;Signal;HPM_P1;HPM_P2
2022/09/22 00:01:24;;;;;;;1.10;1.00;;;18.40;61.40;;;;;;4972252;28;20653;-70
2022/09/22 00:03:55;;;;;;;1.85;1.20;;;18.40;61.40;;;;;;4956854;28;20201;-70
2022/09/22 00:06:27;;;;;;;1.23;0.98;;;18.40;61.40;;;;;;4988834;28;20224;-69
2022/09/22 00:08:59;;;;;;;1.70;1.02;;;18.40;61.40;;;;;;4956599;28;20233;-69
2022/09/22 00:11:35;;;;;;;1.17;1.08;;;18.40;61.40;;;;;;4956361;28;20188;-69
2022/09/22 00:14:13;;;;;;;1.13;1.13;;;18.40;61.40;;;;;;4973796;28;20181;-69
2022/09/22 00:16:46;;;;;;;1.00;0.90;;;18.40;61.40;;;;;;4988660;28;20201;-69
2022/09/22 00:19:37;;;;;;;1.08;0.98;;;18.40;61.40;;;;;;4972806;28;20193;-70
2022/09/22 00:22:04;;;;;;;1.20;1.10;;;18.40;61.50;;;;;;4974884;28;20205;-70
2022/09/22 00:24:30;;;;;;;1.13;1.02;;;18.40;61.30;;;;;;4973761;28;20244;-70
2022/09/22 00:26:58;;;;;;;1.88;1.20;;;18.40;61.40;;;;;;4956331;28;20213;-70
2022/09/22 00:29:29;;;;;;;1.33;1.10;;;18.40;61.50;;;;;;4988667;28;20301;-70
2022/09/22 00:31:56;;;;;;;1.13;1.10;;;18.40;61.40;;;;;;4956616;28;20224;-69
2022/09/22 00:34:25;;;;;;;1.00;1.00;;;18.40;61.40;;;;;;4988337;28;20574;-70
2022/09/22 00:36:51;;;;;;;1.23;1.13;;;18.40;61.40;;;;;;4956298;28;20225;-69
2022/09/22 00:39:18;;;;;;;2.88;1.30;;;18.40;61.40;;;;;;4956001;28;20193;-68
2022/09/22 00:41:50;;;;;;;1.27;1.17;;;18.40;61.40;;;;;;4956229;28;20248;-69
2022/09/22 00:44:37;;;;;;;1.45;1.08;;;18.40;61.50;;;;;;4988676;28;20193;-69
2022/09/22 00:47:38;;;;;;;1.27;1.20;;;18.40;61.40;;;;;;4972313;28;20217;-69
2022/09/22 00:50:22;;;;;;;1.15;1.10;;;18.40;61.40;;;;;;4988255;28;20229;-70
2022/09/22 00:53:04;;;;;;;1.05;0.98;;;18.40;61.40;;;;;;4972506;28;20177;-69
2022/09/22 00:55:56;;;;;;;1.30;1.10;;;18.40;61.40;;;;;;4988402;28;20209;-70
2022/09/22 00:58:31;;;;;;;1.20;1.10;;;18.40;61.50;;;;;;4956080;28;20189;-69
2022/09/22 01:00:58;;;;;;;0.80;0.80;;;18.40;61.50;;;;;;4971984;28;20619;-70
2022/09/22 01:03:28;;;;;;;1.38;1.27;;;18.40;61.60;;;;;;4971965;28;20181;-70
2022/09/22 01:05:58;;;;;;;1.17;1.08;;;18.40;61.50;;;;;;4955954;28;20214;-70
2022/09/22 01:08:25;;;;;;;1.38;1.27;;;18.40;61.50;;;;;;4956153;28;20186;-70
2022/09/22 01:10:54;;;;;;;1.65;1.05;;;18.40;61.50;;;;;;4972904;28;20218;-70
2022/09/22 01:13:37;;;;;;;1.48;1.13;;;18.40;61.40;;;;;;4988488;28;20190;-70
2022/09/22 01:16:26;;;;;;;0.93;0.93;;;18.40;61.50;;;;;;4991904;28;20599;-70
2022/09/22 01:19:16;;;;;;;1.60;1.17;;;18.30;61.30;;;;;;4977093;28;20166;-70
2022/09/22 01:22:49;;;;;;;0.80;0.77;;;18.40;61.40;;;;;;4975787;28;20197;-69
2022/09/22 01:25:48;;;;;;;0.90;0.90;;;18.40;61.50;;;;;;4980356;28;20212;-70
2022/09/22 01:28:41;;;;;;;1.40;1.13;;;18.40;61.50;;;;;;5010879;28;20663;-70
2022/09/22 01:31:20;;;;;;;0.98;0.98;;;18.40;61.40;;;;;;5010986;28;20287;-69
2022/09/22 01:33:52;;;;;;;1.10;1.00;;;18.30;61.20;;;;;;5011563;28;20193;-69
2022/09/22 01:36:36;;;;;;;0.80;0.80;;;18.30;61.30;;;;;;5044207;22;20289;-69
2022/09/22 01:39:29;;;;;;;1.05;0.90;;;18.30;61.30;;;;;;5034146;28;20179;-71
2022/09/22 01:42:10;;;;;;;0.90;0.90;;;18.30;61.20;;;;;;5017974;28;20202;-72
2022/09/22 01:44:50;;;;;;;1.70;0.90;;;18.30;61.20;;;;;;5034083;28;20640;-72
2022/09/22 01:47:23;;;;;;;1.00;1.00;;;18.40;61.50;;;;;;5017503;28;20214;-72
2022/09/22 01:49:59;;;;;;;1.20;1.10;;;18.30;61.30;;;;;;5033655;28;20288;-72
2022/09/22 01:52:31;;;;;;;0.95;0.95;;;18.30;61.30;;;;;;5034204;28;20175;-72
2022/09/22 01:55:06;;;;;;;1.15;1.08;;;18.30;61.40;;;;;;5034096;28;20168;-72
2022/09/22 01:57:47;;;;;;;0.90;0.90;;;18.30;61.40;;;;;;5050457;28;20248;-72
2022/09/22 02:00:14;;;;;;;0.90;0.90;;;18.30;61.40;;;;;;5033566;28;20249;-72
2022/09/22 02:02:51;;;;;;;1.42;1.33;;;18.30;61.30;;;;;;5034056;28;20184;-72
2022/09/22 02:05:46;;;;;;;1.10;1.10;;;18.30;61.30;;;;;;5033875;28;20226;-72
2022/09/22 02:08:27;;;;;;;0.98;0.80;;;18.30;61.30;;;;;;5048143;28;20681;-72
2022/09/22 02:10:57;;;;;;;1.20;1.10;;;18.30;61.30;;;;;;5033283;28;20289;-72
2022/09/22 02:13:24;;;;;;;0.90;0.80;;;18.30;61.30;;;;;;5050216;28;20298;-72
2022/09/22 02:16:01;;;;;;;1.20;1.10;;;18.30;61.30;;;;;;5034486;28;20199;-72
2022/09/22 02:19:00;;;;;;;1.08;1.08;;;18.30;61.30;;;;;;5050043;28;20274;-72
2022/09/22 02:21:26;;;;;;;1.05;0.90;;;18.30;61.30;;;;;;5033175;28;20667;-72
2022/09/22 02:23:53;;;;;;;1.08;1.00;;;18.30;61.20;;;;;;5050008;28;20217;-72
2022/09/22 02:26:24;;;;;;;0.90;0.90;;;18.30;61.20;;;;;;5032703;28;20207;-72
2022/09/22 02:29:07;;;;;;;1.10;1.10;;;18.30;62.10;;;;;;5016649;28;20187;-72
2022/09/22 02:31:37;;;;;;;1.08;1.02;;;18.30;61.20;;;;;;5033363;28;20189;-72
2022/09/22 02:34:05;;;;;;;0.90;0.90;;;18.30;61.30;;;;;;5029934;28;20267;-72
2022/09/22 02:36:42;;;;;;;1.00;1.00;;;18.30;61.30;;;;;;5045783;28;20206;-71
2022/09/22 02:39:25;;;;;;;1.30;1.20;;;18.30;61.20;;;;;;5016935;28;20217;-72
2022/09/22 02:42:26;;;;;;;1.05;0.95;;;18.30;61.30;;;;;;5015103;28;20195;-72
2022/09/22 02:45:38;;;;;;;1.20;1.10;;;18.30;61.20;;;;;;5023380;28;20191;-72
2022/09/22 02:48:31;;;;;;;1.10;1.00;;;18.30;61.20;;;;;;5032951;28;20180;-72
2022/09/22 02:50:57;;;;;;;0.90;0.80;;;18.30;61.30;;;;;;5033770;28;20218;-72
2022/09/22 02:53:23;;;;;;;1.00;1.00;;;18.30;61.30;;;;;;5032739;28;20180;-72
2022/09/22 02:55:49;;;;;;;1.10;0.98;;;18.30;61.20;;;;;;5032567;28;20195;-72
2022/09/22 02:58:16;;;;;;;1.23;1.13;;;18.30;61.30;;;;;;5032787;28;20180;-72
2022/09/22 03:00:44;;;;;;;1.30;1.20;;;18.30;61.30;;;;;;5016000;28;20187;-72
2022/09/22 03:03:11;;;;;;;1.42;1.33;;;18.30;61.30;;;;;;5049155;28;20198;-72
2022/09/22 03:05:38;;;;;;;1.67;1.17;;;18.30;61.30;;;;;;5016136;28;20184;-72
2022/09/22 03:08:04;;;;;;;1.20;1.10;;;18.30;61.30;;;;;;5048608;28;20242;-72
2022/09/22 03:10:30;;;;;;;1.20;1.10;;;18.30;61.30;;;;;;5031440;28;20214;-72
2022/09/22 03:12:56;;;;;;;1.02;0.93;;;18.30;61.20;;;;;;5032470;28;20187;-72
2022/09/22 03:15:23;;;;;;;0.90;0.90;;;18.30;61.20;;;;;;5048958;28;20244;-72
2022/09/22 03:17:49;;;;;;;1.30;1.20;;;18.30;61.30;;;;;;5032612;28;20203;-72
2022/09/22 03:20:15;;;;;;;1.20;1.02;;;18.30;61.30;;;;;;5032355;28;20183;-72
2022/09/22 03:22:42;;;;;;;0.98;0.90;;;18.30;61.20;;;;;;5032463;28;20274;-72
2022/09/22 03:25:09;;;;;;;1.20;1.10;;;18.20;61.10;;;;;;5032117;28;20190;-72
2022/09/22 03:27:36;;;;;;;0.90;0.90;;;18.20;61.20;;;;;;5015583;28;20207;-72
2022/09/22 03:30:07;;;;;;;1.10;1.10;;;18.30;61.20;;;;;;5032000;28;20214;-72
2022/09/22 03:32:35;;;;;;;0.90;0.90;;;18.30;61.30;;;;;;5032348;28;20183;-72
2022/09/22 03:35:01;;;;;;;1.20;1.10;;;18.30;61.20;;;;;;5032351;28;20183;-72
2022/09/22 03:37:27;;;;;;;1.10;1.10;;;18.30;61.30;;;;;;5031291;28;20682;-72
2022/09/22 03:39:52;;;;;;;1.35;1.25;;;18.20;61.20;;;;;;5048317;28;20244;-72
2022/09/22 03:42:18;;;;;;;1.10;1.10;;;18.30;61.30;;;;;;5031834;28;20187;-72
2022/09/22 03:44:44;;;;;;;1.30;1.20;;;18.30;61.20;;;;;;5031844;28;20270;-72
2022/09/22 03:47:09;;;;;;;1.20;1.10;;;18.30;61.20;;;;;;5048376;28;20215;-72
2022/09/22 03:49:35;;;;;;;1.23;0.82;;;18.30;61.20;;;;;;5031506;28;20214;-70
2022/09/22 03:52:01;;;;;;;1.23;1.15;;;18.30;61.20;;;;;;5031578;28;20183;-72
2022/09/22 03:54:27;;;;;;;1.58;1.15;;;18.30;61.20;;;;;;5031716;28;20246;-72
2022/09/22 03:56:53;;;;;;;1.30;1.20;;;18.20;61.20;;;;;;5015378;28;20211;-72
2022/09/22 03:59:19;;;;;;;1.52;1.02;;;18.20;61.20;;;;;;5031812;28;20199;-72
2022/09/22 04:01:46;;;;;;;1.08;0.90;;;18.20;61.10;;;;;;5031357;28;20186;-72
2022/09/22 04:04:11;;;;;;;1.40;1.10;;;18.30;61.30;;;;;;5031735;28;20261;-72
2022/09/22 04:06:37;;;;;;;1.33;1.10;;;18.30;61.30;;;;;;5031679;28;20214;-72
2022/09/22 04:09:04;;;;;;;1.30;1.13;;;18.30;61.30;;;;;;5031296;28;20318;-72
2022/09/22 04:11:30;;;;;;;0.93;0.93;;;18.20;61.10;;;;;;5031217;28;20254;-72
2022/09/22 04:13:56;;;;;;;1.33;1.17;;;18.30;61.20;;;;;;5031321;28;20194;-72
2022/09/22 04:16:22;;;;;;;1.08;1.08;;;18.20;61.20;;;;;;5031264;28;20282;-72
2022/09/22 04:18:48;;;;;;;1.75;1.10;;;18.20;61.10;;;;;;5031653;28;20191;-72
2022/09/22 04:21:14;;;;;;;1.10;1.10;;;18.30;61.20;;;;;;5048124;28;20179;-72
2022/09/22 04:23:40;;;;;;;1.15;1.05;;;18.20;61.10;;;;;;5031266;28;20225;-72
2022/09/22 04:26:05;;;;;;;1.30;1.20;;;18.20;61.20;;;;;;5031478;28;20210;-72
2022/09/22 04:28:31;;;;;;;1.23;1.13;;;18.20;61.10;;;;;;5032381;28;20198;-72
2022/09/22 04:30:57;;;;;;;1.40;1.30;;;18.30;61.30;;;;;;5030987;28;20215;-72
2022/09/22 04:33:24;;;;;;;1.27;1.17;;;18.20;61.20;;;;;;5031127;28;20183;-72
2022/09/22 04:35:51;;;;;;;1.02;0.90;;;18.20;61.20;;;;;;5047545;28;20215;-72
2022/09/22 04:38:18;;;;;;;0.95;0.95;;;18.20;61.10;;;;;;5031356;28;20175;-72
2022/09/22 04:40:44;;;;;;;1.17;0.90;;;18.30;61.20;;;;;;5047487;28;20250;-72
2022/09/22 04:43:11;;;;;;;1.33;1.23;;;18.20;61.20;;;;;;5031134;28;20179;-72
2022/09/22 04:45:37;;;;;;;1.02;1.02;;;18.20;61.20;;;;;;5014466;28;20197;-72
2022/09/22 04:48:04;;;;;;;1.08;1.00;;;18.20;61.20;;;;;;5015523;28;20187;-72
2022/09/22 04:50:30;;;;;;;0.85;0.85;;;18.20;61.20;;;;;;5035133;28;20213;-72
2022/09/22 04:52:56;;;;;;;1.02;1.02;;;18.20;61.10;;;;;;5036248;28;20184;-72
2022/09/22 04:55:24;;;;;;;0.93;0.93;;;18.20;61.20;;;;;;5035232;28;20202;-72
2022/09/22 04:57:53;;;;;;;1.33;1.25;;;18.20;61.20;;;;;;5034856;28;20225;-72
2022/09/22 05:00:21;;;;;;;1.73;1.10;;;18.20;61.20;;;;;;5034743;28;20179;-71
2022/09/22 05:02:47;;;;;;;1.17;1.17;;;18.20;61.20;;;;;;5034840;28;20187;-71
2022/09/22 05:05:13;;;;;;;1.02;0.90;;;18.20;61.20;;;;;;5051698;28;20226;-72
2022/09/22 05:07:42;;;;;;;1.17;1.08;;;18.20;61.10;;;;;;5034771;28;20297;-72
2022/09/22 05:10:10;;;;;;;1.02;0.93;;;18.20;61.10;;;;;;5034344;28;20219;-72
2022/09/22 05:12:41;;;;;;;1.17;1.08;;;18.20;61.10;;;;;;5034614;28;20183;-72
2022/09/22 05:15:11;;;;;;;1.52;1.20;;;18.20;61.00;;;;;;5034952;28;20175;-73
2022/09/22 05:17:44;;;;;;;1.42;1.08;;;18.20;61.00;;;;;;5034822;28;20234;-73
2022/09/22 05:20:10;;;;;;;0.88;0.88;;;18.20;61.10;;;;;;5035486;28;20203;-73
2022/09/22 05:22:38;;;;;;;1.52;1.13;;;18.20;61.00;;;;;;5034540;28;20187;-73
2022/09/22 05:25:07;;;;;;;1.15;1.10;;;18.20;61.10;;;;;;5034513;28;20179;-73
2022/09/22 05:27:32;;;;;;;1.10;1.10;;;18.10;61.00;;;;;;5034056;28;20277;-73
2022/09/22 05:29:58;;;;;;;2.15;1.00;;;18.20;61.10;;;;;;5034219;28;20203;-73
2022/09/22 05:32:24;;;;;;;1.25;1.15;;;18.20;61.10;;;;;;5018549;28;20184;-74
2022/09/22 05:34:49;;;;;;;1.20;1.10;;;18.20;61.20;;;;;;5018450;28;20187;-73
2022/09/22 05:37:15;;;;;;;1.10;1.00;;;18.20;61.10;;;;;;5036225;28;20215;-73
2022/09/22 05:39:41;;;;;;;1.50;1.40;;;18.10;61.10;;;;;;5037759;28;20187;-74
2022/09/22 05:42:06;;;;;;;1.40;1.30;;;18.10;61.10;;;;;;5035049;28;20260;-74
2022/09/22 05:44:32;;;;;;;1.20;1.10;;;18.20;61.20;;;;;;5016378;28;20194;-73
2022/09/22 05:46:58;;;;;;;1.52;1.30;;;18.10;61.10;;;;;;5033975;28;20215;-73
2022/09/22 05:49:23;;;;;;;1.30;1.20;;;18.20;61.20;;;;;;5033920;28;20241;-73
2022/09/22 05:51:54;;;;;;;1.48;1.38;;;18.10;61.10;;;;;;5033912;28;20199;-73
2022/09/22 05:54:19;;;;;;;1.20;1.10;;;18.10;61.00;;;;;;5034039;28;20171;-73
2022/09/22 05:56:45;;;;;;;1.40;1.30;;;18.20;61.00;;;;;;5050247;28;20222;-73
2022/09/22 05:59:11;;;;;;;1.40;1.23;;;18.20;61.00;;;;;;5033034;28;20179;-73
2022/09/22 06:01:37;;;;;;;1.38;1.27;;;18.20;61.00;;;;;;5023826;28;20180;-73
2022/09/22 06:04:03;;;;;;;1.55;1.38;;;18.10;61.00;;;;;;5023095;28;20176;-73
2022/09/22 06:06:29;;;;;;;1.77;1.40;;;18.10;61.00;;;;;;5030875;28;20206;-73
2022/09/22 06:08:55;;;;;;;1.23;1.13;;;18.20;61.00;;;;;;5047237;28;20194;-73
2022/09/22 06:11:20;;;;;;;1.38;1.27;;;18.20;61.00;;;;;;5017199;28;20705;-73
2022/09/22 06:13:52;;;;;;;2.45;1.40;;;18.10;60.90;;;;;;5033764;28;20663;-73
2022/09/22 06:16:18;;;;;;;2.72;1.58;;;18.10;61.00;;;;;;5033552;28;20207;-73
2022/09/22 06:18:48;;;;;;;1.08;1.00;;;18.20;61.10;;;;;;5033413;28;20242;-73
2022/09/22 06:21:15;;;;;;;1.52;1.20;;;18.20;61.10;;;;;;5016651;28;20188;-72
2022/09/22 06:23:42;;;;;;;1.33;1.13;;;18.20;61.10;;;;;;5033651;28;20241;-72
2022/09/22 06:26:08;;;;;;;1.30;1.15;;;18.20;61.10;;;;;;5033346;28;20211;-72
2022/09/22 06:28:34;;;;;;;3.55;1.40;;;18.20;61.10;;;;;;5049836;28;20191;-73
2022/09/22 06:31:00;;;;;;;1.30;1.20;;;18.10;61.00;;;;;;5032380;28;20226;-73
2022/09/22 06:33:28;;;;;;;3.53;1.30;;;18.20;61.10;;;;;;5032449;28;20191;-73
2022/09/22 06:35:53;;;;;;;1.38;1.27;;;18.20;61.10;;;;;;5032304;28;20269;-72
2022/09/22 06:38:20;;;;;;;1.30;1.20;;;18.20;61.10;;;;;;5049234;28;20219;-72
2022/09/22 06:40:45;;;;;;;2.15;1.10;;;18.20;61.10;;;;;;5032077;28;20197;-72
2022/09/22 06:43:22;;;;;;;2.83;1.23;;;18.20;61.00;;;;;;5048918;28;20191;-72
2022/09/22 06:45:50;;;;;;;1.20;1.10;;;18.20;61.00;;;;;;5048881;28;20218;-73
2022/09/22 06:48:17;;;;;;;1.70;1.40;;;18.20;61.00;;;;;;5032461;28;20191;-72
2022/09/22 06:50:52;;;;;;;2.33;1.48;;;18.20;60.90;;;;;;5015489;28;20223;-72
2022/09/22 06:53:18;;;;;;;3.25;1.40;;;18.20;60.90;;;;;;5032013;28;20182;-73
2022/09/22 06:55:44;;;;;;;1.65;1.40;;;18.20;60.80;;;;;;5015717;28;20184;-72
2022/09/22 06:58:12;;;;;;;1.30;1.20;;;18.30;60.90;;;;;;5032000;28;20261;-73
2022/09/22 07:00:40;;;;;;;1.40;1.27;;;18.20;60.90;;;;;;5015390;28;20265;-72
2022/09/22 07:03:19;;;;;;;1.48;1.30;;;18.30;60.90;;;;;;5031910;28;20198;-73
2022/09/22 07:06:01;;;;;;;1.55;1.17;;;18.30;60.80;;;;;;5031885;28;20191;-73
2022/09/22 07:08:30;;;;;;;1.40;1.30;;;18.30;60.90;;;;;;5048656;28;20187;-72
2022/09/22 07:11:02;;;;;;;1.45;1.30;;;18.30;60.90;;;;;;5015024;28;20581;-73
2022/09/22 07:13:31;;;;;;;2.25;1.00;;;18.30;60.80;;;;;;5031879;28;20193;-72
2022/09/22 07:16:02;;;;;;;1.52;1.42;;;18.30;60.80;;;;;;5032316;28;20200;-73
2022/09/22 07:18:29;;;;;;;1.58;1.17;;;18.30;60.80;;;;;;5011821;28;20188;-72
2022/09/22 07:21:13;;;;;;;1.42;1.33;;;18.30;60.60;;;;;;4995683;28;20222;-73
2022/09/22 07:23:40;;;;;;;1.67;1.45;;;18.30;60.50;;;;;;5029174;28;20264;-72
2022/09/22 07:26:11;;;;;;;1.42;1.20;;;18.40;60.40;;;;;;5052566;28;20212;-72
2022/09/22 07:28:38;;;;;;;2.33;1.60;;;18.40;60.40;;;;;;5034854;28;20241;-72
2022/09/22 07:31:10;;;;;;;1.65;1.48;;;18.40;60.60;;;;;;5050912;28;20317;-72
2022/09/22 07:33:38;;;;;;;1.70;1.60;;;18.40;60.40;;;;;;5033269;28;20277;-73
2022/09/22 07:36:13;;;;;;;1.67;1.30;;;18.40;60.30;;;;;;5048908;28;20294;-73
2022/09/22 07:38:47;;;;;;;1.73;1.30;;;18.40;60.20;;;;;;5031522;28;20187;-73
2022/09/22 07:41:28;;;;;;;1.40;1.30;;;18.50;60.20;;;;;;5047502;28;20195;-73
2022/09/22 07:45:11;;;;;;;2.60;1.70;;;18.50;60.10;;;;;;5031271;28;20187;-73
2022/09/22 07:47:03;;;;;;;2.15;1.50;;;18.50;60.10;;;;;;5032167;28;20203;-73
2022/09/22 07:49:29;;;;;;;1.30;1.20;;;18.60;60.10;;;;;;5031091;28;20219;-73
2022/09/22 07:51:56;;;;;;;2.95;1.20;;;18.60;60.10;;;;;;5032075;28;20183;-73
2022/09/22 07:54:26;;;;;;;1.63;1.30;;;18.60;60.10;;;;;;5030975;28;20606;-74
2022/09/22 07:56:56;;;;;;;1.65;1.38;;;18.60;60.10;;;;;;5031445;28;20211;-74
2022/09/22 07:59:23;;;;;;;2.25;1.60;;;18.60;60.10;;;;;;5030984;28;20187;-73
2022/09/22 08:01:50;;;;;;;1.30;1.20;;;18.70;59.90;;;;;;5047514;28;20186;-73
2022/09/22 08:04:21;;;;;;;1.88;1.40;;;18.70;60.10;;;;;;5030894;28;20187;-72
2022/09/22 08:06:54;;;;;;;2.13;1.50;;;18.70;60.00;;;;;;5030976;28;20320;-73
2022/09/22 08:09:20;;;;;;;1.30;1.20;;;18.70;59.90;;;;;;5030667;28;20618;-73
2022/09/22 08:11:47;;;;;;;1.50;1.33;;;18.70;60.00;;;;;;5030806;28;20187;-73
2022/09/22 08:14:19;;;;;;;1.83;1.50;;;18.70;59.90;;;;;;5030588;28;20187;-74
2022/09/22 08:16:45;;;;;;;1.40;1.30;;;18.70;59.90;;;;;;5030679;28;20781;-73
2022/09/22 08:19:12;;;;;;;1.60;1.38;;;18.70;59.90;;;;;;5030629;28;20270;-74
2022/09/22 08:21:52;;;;;;;1.52;1.40;;;18.70;59.90;;;;;;5030709;28;20191;-73
2022/09/22 08:24:20;;;;;;;2.28;1.30;;;18.70;59.90;;;;;;5013585;28;20206;-73
2022/09/22 08:26:47;;;;;;;1.85;1.60;;;18.70;60.00;;;;;;5030444;28;20207;-73
2022/09/22 08:29:13;;;;;;;1.65;1.30;;;18.80;60.00;;;;;;5030453;28;20564;-73
2022/09/22 08:31:41;;;;;;;1.73;1.55;;;18.70;59.90;;;;;;5030468;28;20183;-73
2022/09/22 08:34:08;;;;;;;2.63;1.50;;;18.80;60.10;;;;;;5047218;28;20190;-73
2022/09/22 08:36:35;;;;;;;1.25;1.13;;;18.80;59.90;;;;;;5030401;28;20219;-74
2022/09/22 08:39:03;;;;;;;1.55;1.20;;;18.70;59.90;;;;;;5047078;28;20254;-74
2022/09/22 08:41:37;;;;;;;2.00;1.45;;;18.80;60.10;;;;;;5030433;28;20191;-73
2022/09/22 08:44:09;;;;;;;2.03;1.50;;;18.80;60.10;;;;;;5046965;28;20297;-73
2022/09/22 08:46:44;;;;;;;2.28;1.70;;;18.80;60.00;;;;;;5046923;28;20218;-73
2022/09/22 08:52:33;;;;;;;2.08;1.38;;;18.80;60.00;;;;;;5046731;28;20190;-73
2022/09/22 08:55:01;;;;;;;2.20;1.65;;;18.80;59.90;;;;;;5030359;28;20563;-73
2022/09/22 08:58:06;;;;;;;1.92;1.70;;;18.80;60.00;;;;;;5030367;28;20206;-73
2022/09/22 09:00:52;;;;;;;2.90;1.70;;;18.70;59.90;;;;;;5030037;28;20190;-73
2022/09/22 09:04:13;;;;;;;2.35;1.60;;;18.80;60.10;;;;;;5030219;28;20595;-73
2022/09/22 09:07:32;;;;;;;2.47;1.90;;;18.80;59.90;;;;;;5030032;28;20210;-73
2022/09/22 09:10:14;;;;;;;2.38;1.70;;;18.70;60.00;;;;;;5031399;28;20268;-73
2022/09/22 09:13:05;;;;;;;2.13;1.58;;;18.70;60.10;;;;;;5046803;28;20586;-74
2022/09/22 09:16:13;;;;;;;1.65;1.45;;;18.70;60.10;;;;;;5013923;28;20187;-73
2022/09/22 09:18:44;;;;;;;3.13;1.70;;;18.80;60.10;;;;;;5025768;28;20190;-73
2022/09/22 09:21:14;;;;;;;1.80;1.70;;;18.70;60.30;;;;;;4993737;28;20275;-73
2022/09/22 09:23:46;;;;;;;2.25;1.65;;;18.70;60.00;;;;;;4994284;28;20184;-73
2022/09/22 09:26:15;;;;;;;2.40;1.75;;;18.70;60.00;;;;;;5010462;28;20261;-73
2022/09/22 09:28:53;;;;;;;3.13;2.00;;;18.70;60.10;;;;;;4994160;28;20188;-73
2022/09/22 09:31:45;;;;;;;3.25;1.60;;;18.70;60.00;;;;;;5031643;28;20210;-73
2022/09/22 09:34:17;;;;;;;1.70;1.60;;;18.70;59.90;;;;;;5051296;28;20232;-73
2022/09/22 09:36:58;;;;;;;2.13;1.63;;;18.70;59.80;;;;;;5036720;28;20217;-73
2022/09/22 09:39:35;;;;;;;1.85;1.58;;;18.70;59.90;;;;;;5053512;28;20194;-73
2022/09/22 09:42:17;;;;;;;2.95;1.70;;;18.70;59.90;;;;;;5029195;28;20188;-73
2022/09/22 09:44:44;;;;;;;1.55;1.45;;;18.70;59.70;;;;;;4997538;28;20211;-73
2022/09/22 09:47:43;;;;;;;1.75;1.38;;;18.70;59.70;;;;;;4997214;28;20215;-71
2022/09/22 09:50:12;;;;;;;2.38;1.80;;;18.70;60.10;;;;;;4998095;28;20265;-73
2022/09/22 09:52:38;;;;;;;1.80;1.70;;;18.70;59.90;;;;;;5014606;28;20172;-73
2022/09/22 09:55:30;;;;;;;1.50;1.27;;;18.70;59.90;;;;;;5014586;28;20267;-73
2022/09/22 10:00:29;;;;;;;1.88;1.50;;;18.70;59.80;;;;;;5015797;28;20223;-73
2022/09/22 10:00:59;;;;;;;1.73;1.40;;;18.70;59.80;;;;;;5017010;28;20204;-72
2022/09/22 10:03:32;;;;;;;1.25;1.10;;;18.70;59.60;;;;;;4997863;28;20184;-73
2022/09/22 10:06:06;;;;;;;1.20;1.10;;;18.80;59.70;;;;;;4997665;28;20204;-73
2022/09/22 10:08:42;;;;;;;1.88;1.23;;;18.70;59.60;;;;;;5014205;28;20180;-73
2022/09/22 10:11:11;;;;;;;2.03;1.58;;;18.70;59.60;;;;;;4997336;28;20271;-73
2022/09/22 10:13:40;;;;;;;2.95;2.10;;;18.70;60.10;;;;;;5013891;28;20215;-73
2022/09/22 10:16:22;;;;;;;3.25;2.42;;;18.70;61.00;;;;;;4981490;28;20196;-73
2022/09/22 10:18:57;;;;;;;3.70;2.67;;;18.70;60.60;;;;;;4997510;28;20192;-73
2022/09/22 10:21:26;;;;;;;9.05;6.70;;;18.70;60.00;;;;;;4997101;28;20206;-72
2022/09/22 10:23:55;;;;;;;11.10;7.82;;;18.70;60.80;;;;;;5013630;28;20184;-73
2022/09/22 10:26:32;;;;;;;13.45;9.20;;;18.70;60.90;;;;;;5013671;28;20212;-73
2022/09/22 10:29:18;;;;;;;15.20;12.13;;;18.70;59.90;;;;;;5023435;28;20658;-73
2022/09/22 10:32:12;;;;;;;21.00;15.13;;;18.70;60.00;;;;;;5049605;28;20227;-73
2022/09/22 10:34:48;;;;;;;23.30;17.40;;;18.70;59.60;;;;;;5033552;28;20198;-72
2022/09/22 10:37:18;;;;;;;26.13;19.10;;;18.80;59.90;;;;;;5032881;28;20218;-73
2022/09/22 10:40:00;;;;;;;27.52;19.90;;;18.80;59.70;;;;;;5034562;28;20266;-73
2022/09/22 10:42:39;;;;;;;29.05;20.85;;;18.80;60.30;;;;;;5041188;28;20187;-73
2022/09/22 10:45:14;;;;;;;33.17;23.33;;;18.80;59.70;;;;;;5034163;28;20175;-71
2022/09/22 10:48:12;;;;;;;37.83;27.23;;;18.80;59.80;;;;;;5016164;28;20207;-73
2022/09/22 10:51:14;;;;;;;45.13;32.58;;;18.70;60.30;;;;;;5049547;28;20294;-73
2022/09/22 10:54:04;;;;;;;50.67;34.90;;;18.80;60.50;;;;;;5016695;28;20262;-73
2022/09/22 10:56:45;;;;;;;51.53;34.63;;;18.70;59.70;;;;;;5032488;28;20214;-72
2022/09/22 10:59:38;;;;;;;47.55;34.15;;;18.70;59.60;;;;;;5049312;28;20601;-73
2022/09/22 11:02:36;;;;;;;49.78;34.88;;;18.70;59.60;;;;;;5032533;28;20548;-73
2022/09/22 11:14:49;;;;;;;45.28;34.50;;;18.70;58.80;;;;;;5033583;28;20163;-73
2022/09/22 11:17:46;;;;;;;49.65;34.30;;;18.70;59.50;;;;;;5015066;28;20634;-72
2022/09/22 11:20:35;;;;;;;43.58;33.05;;;18.80;59.40;;;;;;5032476;28;20226;-72
2022/09/22 11:23:50;;;;;;;44.75;32.75;;;18.70;58.90;;;;;;5032639;28;20279;-72
2022/09/22 11:26:39;;;;;;;54.35;39.92;;;18.70;59.00;;;;;;5028866;28;20219;-75
2022/09/22 11:29:29;;;;;;;63.08;45.03;;;18.80;59.70;;;;;;5017617;28;20258;-73
2022/09/22 11:32:33;;;;;;;61.13;42.88;;;18.80;59.60;;;;;;5044233;28;20639;-74
2022/09/22 11:35:33;;;;;;;55.75;39.85;;;18.80;59.60;;;;;;5035308;28;20230;-74
2022/09/22 11:38:28;;;;;;;55.88;39.75;;;18.80;59.70;;;;;;5033519;28;20195;-74
2022/09/22 11:41:02;;;;;;;55.22;39.85;;;18.80;59.70;;;;;;5037449;28;20328;-74
2022/09/22 11:43:49;;;;;;;53.83;39.70;;;18.80;59.20;;;;;;5015321;28;20183;-74
2022/09/22 11:46:54;;;;;;;54.40;38.25;;;18.80;59.40;;;;;;5015014;28;20203;-73
2022/09/22 11:49:46;;;;;;;47.92;35.50;;;18.80;59.10;;;;;;5015186;28;20187;-74
2022/09/22 11:52:52;;;;;;;47.90;35.47;;;18.80;59.20;;;;;;5031863;28;20175;-74
2022/09/22 11:55:31;;;;;;;47.60;35.20;;;18.80;59.20;;;;;;5015093;28;20187;-74
2022/09/22 11:58:07;;;;;;;45.15;33.08;;;18.80;59.00;;;;;;5031019;28;20186;-74
2022/09/22 12:00:42;;;;;;;46.90;34.13;;;18.80;59.10;;;;;;5015288;28;20190;-74
2022/09/22 12:03:34;;;;;;;49.30;34.63;;;18.80;59.00;;;;;;5031507;28;20599;-74
2022/09/22 12:06:23;;;;;;;43.40;31.95;;;18.80;59.20;;;;;;5031760;28;20265;-73
2022/09/22 12:09:00;;;;;;;46.28;33.38;;;18.80;59.00;;;;;;5015059;28;20268;-73
2022/09/22 12:11:27;;;;;;;40.05;31.23;;;18.80;59.00;;;;;;5014764;28;20221;-73
2022/09/22 12:13:57;;;;;;;43.67;30.85;;;18.80;59.20;;;;;;5014750;28;20184;-74
2022/09/22 12:16:41;;;;;;;43.85;31.02;;;18.80;58.90;;;;;;5031178;28;20617;-74
2022/09/22 12:19:28;;;;;;;39.22;29.20;;;18.80;58.90;;;;;;5014756;28;20186;-74
2022/09/22 12:22:10;;;;;;;38.13;28.27;;;18.80;58.90;;;;;;5031341;28;20219;-74
2022/09/22 12:24:36;;;;;;;38.00;27.63;;;18.80;58.90;;;;;;5015802;28;20175;-74
2022/09/22 12:27:18;;;;;;;37.42;27.67;;;18.80;58.90;;;;;;5014568;28;20286;-74
2022/09/22 12:29:45;;;;;;;35.97;27.08;;;18.70;58.70;;;;;;4999578;28;20265;-73
2022/09/22 12:32:25;;;;;;;38.47;28.05;;;18.80;58.90;;;;;;5030838;28;20187;-73
2022/09/22 12:34:57;;;;;;;37.60;28.25;;;18.80;59.00;;;;;;5015065;28;20191;-74
2022/09/22 12:37:37;;;;;;;36.28;26.92;;;18.80;59.00;;;;;;5030989;28;20222;-74
2022/09/22 12:40:12;;;;;;;33.67;25.02;;;18.70;58.40;;;;;;5031134;28;20198;-73
2022/09/22 12:42:42;;;;;;;30.25;24.55;;;18.80;58.90;;;;;;5014372;28;20191;-73
2022/09/22 12:45:36;;;;;;;33.30;23.98;;;18.80;59.00;;;;;;5014555;28;20187;-74
2022/09/22 12:48:15;;;;;;;32.53;24.63;;;18.80;58.90;;;;;;5031060;28;20183;-74
2022/09/22 12:50:43;;;;;;;31.98;24.58;;;18.80;58.90;;;;;;5030777;28;20199;-74
2022/09/22 12:53:25;;;;;;;27.58;22.23;;;18.80;59.10;;;;;;5030914;28;20233;-73
2022/09/22 12:55:56;;;;;;;31.73;24.15;;;18.80;59.00;;;;;;5030680;28;20203;-74
2022/09/22 12:58:22;;;;;;;27.95;23.25;;;18.80;59.10;;;;;;5014737;28;20191;-74
2022/09/22 13:00:53;;;;;;;30.23;23.25;;;18.80;59.00;;;;;;5031697;28;20186;-74
2022/09/22 13:03:25;;;;;;;31.17;23.50;;;18.80;59.00;;;;;;5014385;28;20210;-74
2022/09/22 13:05:57;;;;;;;31.42;23.35;;;18.80;58.60;;;;;;5014228;28;20211;-73
2022/09/22 13:08:42;;;;;;;26.27;21.02;;;18.80;58.80;;;;;;5031063;28;20259;-73
2022/09/22 13:11:08;;;;;;;28.50;20.75;;;18.80;58.70;;;;;;5021066;28;20713;-74
2022/09/22 13:13:37;;;;;;;27.38;19.52;;;18.80;58.90;;;;;;5018193;28;20183;-74
2022/09/22 13:16:13;;;;;;;24.27;20.02;;;18.80;58.60;;;;;;5034758;28;20199;-74
2022/09/22 13:18:44;;;;;;;28.48;21.20;;;18.80;58.50;;;;;;5018538;28;20658;-73
2022/09/22 13:21:12;;;;;;;22.42;17.98;;;18.80;58.90;;;;;;5034695;28;20290;-73
2022/09/22 13:23:50;;;;;;;26.50;19.23;;;18.80;58.80;;;;;;5034189;28;20183;-73
2022/09/22 13:26:39;;;;;;;23.50;17.40;;;18.80;58.50;;;;;;5018008;28;20257;-73
2022/09/22 13:29:20;;;;;;;22.65;17.88;;;18.80;58.60;;;;;;5034177;28;20258;-73
2022/09/22 13:31:55;;;;;;;21.08;15.93;;;18.80;58.10;;;;;;5017613;28;20183;-74
2022/09/22 13:34:33;;;;;;;19.92;15.73;;;18.80;58.50;;;;;;5034298;28;20175;-74